Weather at Meadowview Airport [CLOSED]

Public forecast

Using degrees Fahrenheit for public forecast. Weather courtesy of forecast.io.

Closest aviation weather report (METAR) to Meadowview Airport

Closest report is Majors Airport, 3.3 nm (6.1 km) E.

2024/05/17 23:35 (retrieved 16 minutes ago)

KGVT 172335Z AUTO 34004KT 10SM CLR 27/17 A2974 RMK AO2 TSNO T02720170

Closest aviation forecast (TAF) to Meadowview Airport

Closest forecast is Dallas Love Field, 38.6 nm (71.5 km) WSW.

2024/05/17 21:00 Ammendment (retrieved 3 hours ago)

TAF AMD KDAL 172057Z 1721/1818 28007KT P6SM SCT050 FM180000 20004KT P6SM SCT250